Terminal Aerodrome Forecast
Issued by NWS

Current Version | Previous Version | Text Only | Print | Product List | Glossary Off
Versions: 1 2 3 4 5 6 7 8 9 10 11 12 13 14 15 16

147
FTUS41 KPBZ 152321
TAFMGW
TAF
KMGW 152321Z 1600/1624 29012G24KT P6SM SCT025 BKN050
      TEMPO 1600/1601 25020G35KT 2SM -SHRA BKN025
     FM160500 30010KT P6SM BKN025
     FM161400 31008KT P6SM SCT035
     FM162300 32006KT P6SM SKC=

USA.gov is the U.S. government's official web portal to all federal, state and local government web resources and services.